BAW25C LGSK-EGLC
Flight info
| Callsign | BAW25C |
|---|---|
| Flight time | N/A |
| Altitude | 38000 |
| Route | IBIDI UL617 MAKED DCT LONTA UL608 DOLEV DCT OKSIG DCT GORPA DCT MODSA DCT MAH DCT NOMBO DCT VIBOM DCT ULNOK L608 LIRSU DCT BUB L608 SUMUM |
| Aircraft | E190/M-SDE3GILORVW/S |
Departure
| Time | 2026-04-20 12:00 |
|---|---|
| Airport | Skiathos Island National Airport (LGSK) |
Arrival
| Time | N/A |
|---|---|
| Airport | London City Airport (EGLC) |
| Time | Latitude | Longitude | Altitude | Speed | Heading |
|---|---|---|---|---|---|
| 2026-04-20 11:34 | 39.17953 | 23.50251 | 49 ft | 0 kts | 289° |
| 2026-04-20 11:56 | 39.17948 | 23.50244 | 52 ft | 2 kts | 235° |
| 2026-04-20 11:56 | 39.17938 | 23.50264 | 49 ft | 6 kts | 100° |
| 2026-04-20 11:57 | 39.17927 | 23.50365 | 40 ft | 16 kts | 98° |
| 2026-04-20 11:57 | 39.17968 | 23.50471 | 43 ft | 13 kts | 24° |
| 2026-04-20 11:57 | 39.18055 | 23.50511 | 45 ft | 14 kts | 19° |
| 2026-04-20 11:57 | 39.18157 | 23.50556 | 49 ft | 16 kts | 19° |
| 2026-04-20 11:58 | 39.18261 | 23.50602 | 52 ft | 16 kts | 19° |
| 2026-04-20 11:58 | 39.18369 | 23.50645 | 52 ft | 16 kts | 359° |
| 2026-04-20 11:58 | 39.18417 | 23.50678 | 58 ft | 3 kts | 153° |
| 2026-04-20 11:58 | 39.18393 | 23.50660 | 56 ft | 4 kts | 201° |
| 2026-04-20 11:59 | 39.18392 | 23.50660 | 59 ft | 0 kts | 201° |
| 2026-04-20 11:59 | 39.18390 | 23.50659 | 55 ft | 8 kts | 201° |
| 2026-04-20 11:59 | 39.18101 | 23.50531 | 46 ft | 79 kts | 198° |
| 2026-04-20 11:59 | 39.17381 | 23.50206 | 30 ft | 138 kts | 200° |
| 2026-04-20 12:00 | 39.16431 | 23.49761 | 479 ft | 146 kts | 200° |
| 2026-04-20 12:00 | 39.15460 | 23.49330 | 1066 ft | 150 kts | 197° |
| 2026-04-20 12:00 | 39.14412 | 23.48956 | 1420 ft | 165 kts | 193° |
| 2026-04-20 12:00 | 39.13237 | 23.48619 | 1738 ft | 181 kts | 194° |
| 2026-04-20 12:01 | 39.12050 | 23.48152 | 2364 ft | 176 kts | 195° |
| 2026-04-20 12:01 | 39.10835 | 23.48021 | 2896 ft | 177 kts | 172° |
| 2026-04-20 12:01 | 39.09681 | 23.48562 | 3376 ft | 180 kts | 148° |
| 2026-04-20 12:01 | 39.08783 | 23.49667 | 3866 ft | 180 kts | 126° |
| 2026-04-20 12:02 | 39.08219 | 23.51119 | 4258 ft | 188 kts | 108° |
| 2026-04-20 12:02 | 39.08043 | 23.52865 | 4446 ft | 208 kts | 85° |
| 2026-04-20 12:02 | 39.08463 | 23.54753 | 4552 ft | 236 kts | 60° |
| 2026-04-20 12:02 | 39.09635 | 23.56272 | 4971 ft | 243 kts | 31° |
| 2026-04-20 12:03 | 39.11095 | 23.57345 | 5621 ft | 242 kts | 29° |
| 2026-04-20 12:03 | 39.12552 | 23.58409 | 6250 ft | 241 kts | 29° |
| 2026-04-20 12:03 | 39.14036 | 23.59463 | 6779 ft | 247 kts | 27° |
| 2026-04-20 12:03 | 39.15623 | 23.60466 | 7121 ft | 268 kts | 24° |
| 2026-04-20 12:04 | 39.17453 | 23.61286 | 7454 ft | 285 kts | 7° |
| 2026-04-20 12:04 | 39.19399 | 23.61005 | 8235 ft | 284 kts | 340° |
| 2026-04-20 12:04 | 39.21237 | 23.60116 | 9069 ft | 283 kts | 339° |
| 2026-04-20 12:04 | 39.23096 | 23.59241 | 9756 ft | 287 kts | 340° |
| 2026-04-20 12:05 | 39.24991 | 23.58373 | 10276 ft | 298 kts | 340° |
| 2026-04-20 12:05 | 39.27004 | 23.57436 | 10515 ft | 316 kts | 339° |
| 2026-04-20 12:05 | 39.29073 | 23.56431 | 11140 ft | 320 kts | 339° |
| 2026-04-20 12:05 | 39.31147 | 23.55409 | 11870 ft | 320 kts | 339° |
| 2026-04-20 12:06 | 39.33231 | 23.54386 | 12495 ft | 323 kts | 339° |
| 2026-04-20 12:06 | 39.35338 | 23.53355 | 13136 ft | 325 kts | 339° |
| 2026-04-20 12:06 | 39.37461 | 23.52312 | 13752 ft | 328 kts | 338° |
| 2026-04-20 12:06 | 39.39592 | 23.51251 | 14328 ft | 330 kts | 338° |
| 2026-04-20 12:07 | 39.41740 | 23.50176 | 14903 ft | 332 kts | 338° |
| 2026-04-20 12:07 | 39.43896 | 23.49104 | 15469 ft | 335 kts | 338° |
| 2026-04-20 12:07 | 39.46080 | 23.48048 | 16030 ft | 337 kts | 339° |
| 2026-04-20 12:07 | 39.48280 | 23.46996 | 16558 ft | 339 kts | 339° |
| 2026-04-20 12:08 | 39.50496 | 23.45937 | 17096 ft | 341 kts | 339° |
| 2026-04-20 12:08 | 39.52724 | 23.44862 | 17595 ft | 343 kts | 338° |
| 2026-04-20 12:08 | 39.54963 | 23.43774 | 18120 ft | 345 kts | 338° |
| 2026-04-20 12:08 | 39.57215 | 23.42678 | 18630 ft | 348 kts | 338° |
| 2026-04-20 12:09 | 39.59482 | 23.41571 | 19124 ft | 351 kts | 338° |
| 2026-04-20 12:09 | 39.61770 | 23.40459 | 19629 ft | 354 kts | 338° |
| 2026-04-20 12:09 | 39.64081 | 23.39338 | 20123 ft | 356 kts | 338° |
| 2026-04-20 12:09 | 39.66408 | 23.38206 | 20605 ft | 359 kts | 338° |
| 2026-04-20 12:10 | 39.68752 | 23.37065 | 21059 ft | 362 kts | 338° |
| 2026-04-20 12:10 | 39.71111 | 23.35914 | 21483 ft | 365 kts | 338° |
| 2026-04-20 12:10 | 39.73489 | 23.34751 | 21911 ft | 367 kts | 338° |
| 2026-04-20 12:10 | 39.75881 | 23.33585 | 22304 ft | 369 kts | 338° |
| 2026-04-20 12:11 | 39.78289 | 23.32408 | 22706 ft | 371 kts | 338° |
| 2026-04-20 12:11 | 39.80710 | 23.31225 | 23101 ft | 373 kts | 338° |
| 2026-04-20 12:11 | 39.83143 | 23.30033 | 23480 ft | 376 kts | 338° |
| 2026-04-20 12:11 | 39.85589 | 23.28833 | 23855 ft | 378 kts | 338° |
| 2026-04-20 12:12 | 39.88058 | 23.27620 | 24243 ft | 381 kts | 338° |
| 2026-04-20 12:12 | 39.90494 | 23.26423 | 24624 ft | 383 kts | 338° |
| 2026-04-20 12:12 | 39.92988 | 23.25198 | 25040 ft | 384 kts | 338° |
| 2026-04-20 12:12 | 39.95458 | 23.23988 | 25409 ft | 386 kts | 338° |
| 2026-04-20 12:13 | 39.97978 | 23.22753 | 25754 ft | 389 kts | 338° |
| 2026-04-20 12:13 | 40.00508 | 23.21506 | 26083 ft | 390 kts | 338° |
| 2026-04-20 12:13 | 40.03045 | 23.20253 | 26375 ft | 393 kts | 338° |
| 2026-04-20 12:13 | 40.05605 | 23.18991 | 26656 ft | 395 kts | 338° |
| 2026-04-20 12:14 | 40.08179 | 23.17723 | 26965 ft | 396 kts | 338° |
| 2026-04-20 12:14 | 40.10755 | 23.16451 | 27250 ft | 398 kts | 338° |
| 2026-04-20 12:14 | 40.13345 | 23.15173 | 27516 ft | 400 kts | 338° |
| 2026-04-20 12:14 | 40.15936 | 23.13890 | 27773 ft | 401 kts | 338° |
| 2026-04-20 12:15 | 40.18552 | 23.12596 | 28045 ft | 403 kts | 338° |
| 2026-04-20 12:15 | 40.21173 | 23.11296 | 28320 ft | 404 kts | 338° |
| 2026-04-20 12:15 | 40.23798 | 23.09994 | 28575 ft | 406 kts | 338° |
| 2026-04-20 12:15 | 40.26444 | 23.08680 | 28821 ft | 407 kts | 338° |
| 2026-04-20 12:16 | 40.29086 | 23.07368 | 29089 ft | 408 kts | 338° |
| 2026-04-20 12:16 | 40.31734 | 23.06054 | 29398 ft | 408 kts | 338° |
| 2026-04-20 12:16 | 40.34392 | 23.04732 | 29514 ft | 412 kts | 338° |
| 2026-04-20 12:16 | 40.37064 | 23.03403 | 29835 ft | 410 kts | 338° |
| 2026-04-20 12:17 | 40.39719 | 23.02077 | 30060 ft | 411 kts | 338° |
| 2026-04-20 12:17 | 40.42413 | 23.00733 | 30083 ft | 417 kts | 338° |
| 2026-04-20 12:17 | 40.45116 | 22.99375 | 30381 ft | 415 kts | 336° |
| 2026-04-20 12:17 | 40.47730 | 22.97756 | 30433 ft | 419 kts | 332° |
| 2026-04-20 12:18 | 40.52924 | 22.94086 | 30467 ft | 429 kts | 330° |
| 2026-04-20 12:18 | 40.58187 | 22.90313 | 30781 ft | 431 kts | 330° |
| 2026-04-20 12:19 | 40.60808 | 22.88480 | 31175 ft | 425 kts | 331° |
| 2026-04-20 12:19 | 40.63404 | 22.86670 | 31471 ft | 422 kts | 331° |
| 2026-04-20 12:19 | 40.66003 | 22.84849 | 31596 ft | 424 kts | 330° |
| 2026-04-20 12:19 | 40.68591 | 22.83023 | 31840 ft | 422 kts | 330° |
| 2026-04-20 12:20 | 40.71175 | 22.81197 | 32049 ft | 422 kts | 330° |
| 2026-04-20 12:20 | 40.73751 | 22.79377 | 32252 ft | 421 kts | 330° |
| 2026-04-20 12:20 | 40.76331 | 22.77555 | 32448 ft | 421 kts | 330° |
| 2026-04-20 12:20 | 40.78906 | 22.75734 | 32662 ft | 421 kts | 330° |
| 2026-04-20 12:21 | 40.81478 | 22.73912 | 32875 ft | 420 kts | 330° |
| 2026-04-20 12:21 | 40.84046 | 22.72094 | 33098 ft | 419 kts | 330° |
| 2026-04-20 12:21 | 40.86607 | 22.70278 | 33318 ft | 419 kts | 330° |
| 2026-04-20 12:21 | 40.89168 | 22.68461 | 33533 ft | 418 kts | 330° |
| 2026-04-20 12:22 | 40.91724 | 22.66645 | 33733 ft | 417 kts | 330° |
| 2026-04-20 12:22 | 40.94272 | 22.64832 | 33957 ft | 416 kts | 330° |
| 2026-04-20 12:22 | 40.96811 | 22.63025 | 34168 ft | 415 kts | 330° |
| 2026-04-20 12:22 | 40.99350 | 22.61216 | 34341 ft | 415 kts | 330° |
| 2026-04-20 12:23 | 41.01888 | 22.59406 | 34505 ft | 416 kts | 330° |
| 2026-04-20 12:23 | 41.04432 | 22.57588 | 34681 ft | 416 kts | 330° |
| 2026-04-20 12:23 | 41.06973 | 22.55773 | 34859 ft | 416 kts | 330° |
| 2026-04-20 12:23 | 41.09512 | 22.53957 | 35040 ft | 416 kts | 330° |
| 2026-04-20 12:24 | 41.12041 | 22.52138 | 35213 ft | 416 kts | 328° |
| 2026-04-20 12:24 | 41.14401 | 22.49933 | 35318 ft | 415 kts | 321° |
| 2026-04-20 12:24 | 41.16672 | 22.47561 | 35490 ft | 415 kts | 320° |
| 2026-04-20 12:24 | 41.18911 | 22.45157 | 35663 ft | 415 kts | 320° |
| 2026-04-20 12:25 | 41.21142 | 22.42743 | 35824 ft | 415 kts | 320° |
| 2026-04-20 12:25 | 41.23376 | 22.40332 | 35979 ft | 415 kts | 320° |
| 2026-04-20 12:25 | 41.25622 | 22.37929 | 36126 ft | 415 kts | 320° |
| 2026-04-20 12:25 | 41.27863 | 22.35536 | 36274 ft | 415 kts | 320° |
| 2026-04-20 12:26 | 41.30110 | 22.33133 | 36420 ft | 415 kts | 320° |
| 2026-04-20 12:26 | 41.32355 | 22.30727 | 36549 ft | 416 kts | 320° |
| 2026-04-20 12:26 | 41.34600 | 22.28314 | 36701 ft | 416 kts | 320° |
| 2026-04-20 12:26 | 41.36836 | 22.25906 | 36856 ft | 415 kts | 320° |
| 2026-04-20 12:27 | 41.39083 | 22.23481 | 37015 ft | 415 kts | 320° |